CheckWX is a tool to help pilots better visualize weather data.  It is not intended as a substitute for an official pre-flight weather briefing.

07:36:17 UTC

KEND METAR
Vance AFB Airport
Enid, Oklahoma, USA
Current

40 mins ago

KEND 230656Z AUTO 06006KT 10SM CLR 20/20 A3005 RMK AO2 VIS 3/4 RWY35L SLP166 T01980198 $
Observed
Sep-23 @ 06:56 UTC
Wind
  • 060° at 6 KTS
Visibility
10 SM
Flight Rules
VFR
Cloud Levels
  • Clear skies
Temperature
20°C / 68°F
Dewpoint
20°C / 68°F
Humidity
100%
Altimeter
30.05" Hg
Pressure
1017.62 hPa
Previous

2 hours ago

KEND 230556Z AUTO 06006KT 10SM CLR 21/21 A3004 RMK AO2 VIS 5/8 RWY35L SLP162 T02050205 10266 20205 402910205 51011 $
Observed
Sep-23 @ 05:56 UTC
Wind
  • 060° at 6 KTS
Visibility
10 SM
Flight Rules
VFR
Cloud Levels
  • Clear skies
Temperature
21°C / 70°F
Dewpoint
21°C / 70°F
Humidity
100%
Altimeter
30.04" Hg
Pressure
1017.32 hPa
Previous

3 hours ago

KEND 230456Z AUTO 05007KT 10SM FEW046 22/20 A3004 RMK AO2 VIS 1 3/8 RWY35L SLP162 T02170200 $
Observed
Sep-23 @ 04:56 UTC
Wind
  • 050° at 7 KTS
Visibility
10 SM
Flight Rules
VFR
Cloud Levels
  • Few at 4,600' AGL
Temperature
22°C / 72°F
Dewpoint
20°C / 68°F
Humidity
88%
Altimeter
30.04" Hg
Pressure
1017.32 hPa